createdAt,value
2019-01-28T00:00:14.999Z,90.77
2019-01-28T00:01:20.998Z,89.82
2019-01-28T00:02:14.962Z,88.97
2019-01-28T00:03:15.001Z,88.02
2019-01-28T00:04:14.929Z,87.36
2019-01-28T00:05:14.913Z,86.6
2019-01-28T00:06:14.650Z,85.66
2019-01-28T00:07:14.877Z,84.33
2019-01-28T00:08:14.867Z,83.29
2019-01-28T00:09:14.841Z,82.53
2019-01-28T00:10:14.828Z,81.96
2019-01-28T00:11:14.809Z,81.68
2019-01-28T00:12:16.455Z,81.4
2019-01-28T00:13:14.776Z,81.3
2019-01-28T00:14:14.758Z,81.21
2019-01-28T00:15:14.740Z,81.59
2019-01-28T00:16:14.477Z,81.87
2019-01-28T00:17:14.710Z,81.3
2019-01-28T00:18:14.989Z,81.02
2019-01-28T00:19:14.671Z,79.98
2019-01-28T00:20:14.652Z,79.03
2019-01-28T00:21:14.637Z,78.46
2019-01-28T00:22:14.621Z,77.51
2019-01-28T00:23:14.603Z,76.67
2019-01-28T00:24:14.581Z,75.34
2019-01-28T00:25:14.567Z,75.15
2019-01-28T00:26:14.604Z,73.83
2019-01-28T00:27:14.530Z,72.03
2019-01-28T00:28:14.514Z,71.46
2019-01-28T00:29:14.496Z,69.38
2019-01-28T00:30:14.481Z,69.19
2019-01-28T00:31:14.462Z,67.3
2019-01-28T00:32:14.445Z,67.11
2019-01-28T00:33:14.424Z,65.4
2019-01-28T00:34:14.162Z,64.26
2019-01-28T00:35:14.395Z,64.07
2019-01-28T00:36:14.373Z,63.04
2019-01-28T00:37:14.359Z,62.09
2019-01-28T00:38:14.341Z,62.37
2019-01-28T00:39:14.338Z,61.9
2019-01-28T00:40:14.305Z,61.43
2019-01-28T00:41:14.289Z,61.15
2019-01-28T00:42:14.267Z,61.99
2019-01-28T00:43:14.252Z,61.8
2019-01-28T00:44:14.233Z,61.24
2019-01-28T00:45:14.215Z,60.38
2019-01-28T00:46:14.197Z,59.81
2019-01-28T00:47:14.178Z,59.12
2019-01-28T00:48:14.173Z,57.92
2019-01-28T00:49:14.147Z,58.02
2019-01-28T00:50:14.130Z,57.73
2019-01-28T00:51:14.118Z,57.54
2019-01-28T00:52:14.093Z,57.45
2019-01-28T00:53:14.074Z,57.35
2019-01-28T00:54:14.061Z,56.7
2019-01-28T00:55:14.042Z,56.79
2019-01-28T00:56:14.021Z,56.98
2019-01-28T00:57:14.011Z,56.48
2019-01-28T00:58:13.738Z,55.75
2019-01-28T00:59:13.720Z,55.34
2019-01-28T01:00:13.950Z,54.52
2019-01-28T01:01:13.931Z,54.04
2019-01-28T01:02:13.920Z,53.92
2019-01-28T01:03:13.903Z,53.66
2019-01-28T01:04:13.883Z,53.17
2019-01-28T01:05:13.865Z,53.95
2019-01-28T01:06:13.843Z,53.74
2019-01-28T01:07:13.825Z,54.02
2019-01-28T01:08:13.808Z,54.11
2019-01-28T01:09:13.790Z,54.02
2019-01-28T01:10:13.531Z,53.64
2019-01-28T01:11:13.757Z,53.74
2019-01-28T01:12:13.491Z,53.83
2019-01-28T01:13:13.724Z,54.68
2019-01-28T01:14:13.698Z,55.63
2019-01-28T01:15:13.437Z,56.1
2019-01-28T01:16:13.670Z,56.29
2019-01-28T01:17:13.654Z,55.15
2019-01-28T01:18:13.633Z,54.87
2019-01-28T01:19:13.614Z,54.39
2019-01-28T01:20:13.596Z,53.74
2019-01-28T01:21:13.579Z,54.02
2019-01-28T01:22:13.564Z,53.17
2019-01-28T01:23:13.296Z,52.12
2019-01-28T01:24:13.277Z,52.03
2019-01-28T01:25:13.509Z,51.28
2019-01-28T01:26:13.496Z,50.8
2019-01-28T01:27:13.472Z,50.61
2019-01-28T01:28:13.459Z,50.9
2019-01-28T01:29:13.441Z,50.71
2019-01-28T01:30:13.423Z,50.8
2019-01-28T01:31:13.400Z,50.8
2019-01-28T01:32:13.401Z,50.71
2019-01-28T01:33:13.365Z,50.42
2019-01-28T01:34:13.502Z,50.23
2019-01-28T01:35:13.330Z,49.76
2019-01-28T01:36:13.314Z,50.23
2019-01-28T01:37:13.300Z,49.85
2019-01-28T01:38:13.028Z,49.85
2019-01-28T01:39:13.263Z,49.95
2019-01-28T01:40:13.238Z,49.85
2019-01-28T01:41:13.225Z,49.95
2019-01-28T01:42:12.964Z,50.14
2019-01-28T01:43:13.191Z,49.95
2019-01-28T01:44:12.923Z,49.76
2019-01-28T01:45:13.154Z,49.95
2019-01-28T01:46:13.134Z,49.85
2019-01-28T01:47:13.115Z,50.33
2019-01-28T01:48:12.847Z,50.42
2019-01-28T01:49:13.080Z,50.99
2019-01-28T01:50:13.062Z,51.37
2019-01-28T01:51:13.045Z,52.03
2019-01-28T01:52:13.025Z,51.75
2019-01-28T01:53:13.009Z,52.31
2019-01-28T01:54:12.988Z,52.12
2019-01-28T01:55:12.978Z,52.22
2019-01-28T01:56:12.955Z,52.88
2019-01-28T01:57:12.938Z,53.36
2019-01-28T01:58:13.074Z,54.58
2019-01-28T01:59:12.901Z,57.23
2019-01-28T02:00:12.636Z,58.37
2019-01-28T02:01:12.621Z,59.31
2019-01-28T02:02:12.603Z,61.3
2019-01-28T02:03:12.835Z,62.34
2019-01-28T02:04:12.564Z,63.39
2019-01-28T02:05:12.794Z,63.95
2019-01-28T02:06:12.784Z,63.95
2019-01-28T02:07:12.758Z,64.04
2019-01-28T02:08:12.744Z,64.04
2019-01-28T02:09:12.727Z,63.29
2019-01-28T02:10:12.706Z,63.01
2019-01-28T02:11:12.687Z,63.01
2019-01-28T02:12:12.670Z,62.34
2019-01-28T02:13:12.407Z,61.77
2019-01-28T02:14:12.641Z,61.96
2019-01-28T02:15:12.369Z,61.02
2019-01-28T02:16:12.594Z,60.83
2019-01-28T02:17:12.583Z,60.07
2019-01-28T02:18:12.562Z,59.41
2019-01-28T02:19:12.547Z,59.6
2019-01-28T02:20:12.280Z,59.69
2019-01-28T02:21:12.509Z,60.55
2019-01-28T02:22:12.489Z,61.21
2019-01-28T02:23:12.473Z,60.83
2019-01-28T02:24:12.458Z,61.02
2019-01-28T02:25:12.436Z,60.26
2019-01-28T02:26:12.421Z,59.41
2019-01-28T02:27:12.403Z,59.22
2019-01-28T02:28:12.384Z,59.03
2019-01-28T02:29:12.369Z,58.75
2019-01-28T02:30:12.350Z,59.41
2019-01-28T02:31:12.082Z,59.41
2019-01-28T02:32:12.312Z,59.31
2019-01-28T02:33:12.293Z,59.31
2019-01-28T02:34:12.278Z,59.69
2019-01-28T02:35:12.262Z,61.02
2019-01-28T02:36:12.250Z,61.68
2019-01-28T02:37:12.221Z,62.25
2019-01-28T02:38:12.206Z,61.96
2019-01-28T02:39:12.187Z,62.06
2019-01-28T02:40:12.172Z,63.29
2019-01-28T02:41:12.155Z,63.39
2019-01-28T02:42:12.139Z,63.39
2019-01-28T02:43:12.114Z,64.04
2019-01-28T02:44:12.097Z,64.14
2019-01-28T02:45:12.083Z,66.5
2019-01-28T02:46:12.061Z,66.5
2019-01-28T02:47:12.052Z,67.26
2019-01-28T02:48:12.031Z,68.68
2019-01-28T02:49:12.011Z,69.82
2019-01-28T02:50:11.990Z,71.42
2019-01-28T02:51:11.973Z,73.79
2019-01-28T02:52:11.952Z,74.45
2019-01-28T02:53:11.943Z,74.83
2019-01-28T02:54:11.914Z,74.83
2019-01-28T02:55:11.921Z,74.64
2019-01-28T02:56:11.886Z,74.36
2019-01-28T02:57:11.864Z,75.31
2019-01-28T02:58:11.846Z,76.25
2019-01-28T02:59:11.826Z,76.72
2019-01-28T03:00:11.807Z,76.82
2019-01-28T03:01:11.793Z,76.82
2019-01-28T03:02:11.525Z,77.2
2019-01-28T03:03:11.753Z,76.72
2019-01-28T03:04:11.740Z,76.82
2019-01-28T03:05:11.720Z,76.06
2019-01-28T03:06:11.698Z,75.4
2019-01-28T03:07:11.443Z,75.31
2019-01-28T03:08:11.668Z,75.49
2019-01-28T03:09:11.646Z,74.74
2019-01-28T03:10:11.628Z,75.31
2019-01-28T03:11:12.934Z,74.74
2019-01-28T03:12:11.597Z,73.98
2019-01-28T03:13:11.573Z,73.79
2019-01-28T03:14:11.320Z,74.36
2019-01-28T03:15:11.540Z,75.4
2019-01-28T03:16:11.520Z,77.01
2019-01-28T03:17:11.504Z,77.01
2019-01-28T03:18:11.489Z,78.8
2019-01-28T03:19:11.464Z,79.09
2019-01-28T03:20:11.448Z,80.6
2019-01-28T03:21:11.431Z,80.88
2019-01-28T03:22:11.411Z,80.79
2019-01-28T03:23:11.403Z,81.51
2019-01-28T03:24:11.377Z,81.93
2019-01-28T03:25:11.358Z,83.06
2019-01-28T03:26:11.338Z,82.73
2019-01-28T03:27:11.328Z,83.11
2019-01-28T03:28:11.307Z,84.06
2019-01-28T03:29:11.283Z,85.1
2019-01-28T03:30:11.270Z,86.23
2019-01-28T03:31:11.265Z,86.14
2019-01-28T03:32:11.255Z,85.57
2019-01-28T03:33:11.333Z,85.1
2019-01-28T03:34:11.195Z,84.44
2019-01-28T03:35:11.176Z,86.52
2019-01-28T03:36:11.173Z,87.37
2019-01-28T03:37:11.140Z,88.03
2019-01-28T03:38:11.121Z,89.83
2019-01-28T03:39:11.099Z,89.26
2019-01-28T03:40:11.091Z,89.36
2019-01-28T03:41:11.068Z,88.79
2019-01-28T03:42:11.049Z,89.17
2019-01-28T03:43:11.031Z,89.07
2019-01-28T03:44:11.010Z,89.26
2019-01-28T03:45:10.994Z,90.39
2019-01-28T03:46:12.337Z,92.66
2019-01-28T03:47:10.953Z,93.04
2019-01-28T03:48:10.936Z,94.27
2019-01-28T03:49:10.919Z,96.35
2019-01-28T03:50:10.899Z,95.88
2019-01-28T03:51:10.888Z,95.88
2019-01-28T03:52:10.620Z,95.31
2019-01-28T03:53:10.850Z,95.21
2019-01-28T03:54:10.839Z,95.12
2019-01-28T03:55:10.562Z,96.35
2019-01-28T03:56:10.793Z,96.54
2019-01-28T03:57:10.774Z,96.92
2019-01-28T03:58:10.755Z,96.73
2019-01-28T03:59:10.733Z,95.88
2019-01-28T04:00:10.479Z,95.59
2019-01-28T04:01:10.697Z,98.14
2019-01-28T04:02:10.680Z,98.9
2019-01-28T04:03:10.660Z,97.2
2019-01-28T04:04:10.645Z,96.07
2019-01-28T04:05:10.624Z,95.31
2019-01-28T04:06:10.602Z,94.27
2019-01-28T04:07:10.588Z,93.7
2019-01-28T04:08:10.567Z,93.61
2019-01-28T04:09:10.554Z,94.08
2019-01-28T04:10:10.534Z,95.12
2019-01-28T04:11:10.513Z,96.73
2019-01-28T04:12:10.249Z,97.3
2019-01-28T04:13:10.477Z,97.3
2019-01-28T04:14:10.458Z,96.45
2019-01-28T04:15:10.438Z,96.64
2019-01-28T04:16:10.424Z,95.97
2019-01-28T04:17:10.403Z,96.54
2019-01-28T04:18:10.136Z,96.45
2019-01-28T04:19:10.366Z,95.88
2019-01-28T04:20:10.350Z,94.65
2019-01-28T04:21:10.330Z,93.8
2019-01-28T04:22:10.312Z,93.61
2019-01-28T04:23:10.291Z,94.18
2019-01-28T04:24:10.272Z,95.21
2019-01-28T04:25:10.252Z,95.5
2019-01-28T04:26:10.236Z,96.64
2019-01-28T04:27:10.216Z,99.99
2019-01-28T04:28:10.200Z,99.99
2019-01-28T04:29:10.180Z,99.99
2019-01-28T04:30:10.163Z,99.99
2019-01-28T04:31:10.144Z,99.99
2019-01-28T04:32:10.123Z,99.99
2019-01-28T04:33:10.107Z,99.99
2019-01-28T04:34:10.092Z,99.99
2019-01-28T04:35:10.079Z,99.99
2019-01-28T04:36:10.056Z,99.99
2019-01-28T04:37:10.033Z,99.99
2019-01-28T04:38:10.021Z,99.99
2019-01-28T04:39:09.997Z,99.99
2019-01-28T04:40:09.976Z,99.99
2019-01-28T04:41:09.958Z,99.99
2019-01-28T04:42:09.943Z,99.99
2019-01-28T04:43:09.918Z,99.99
2019-01-28T04:44:09.907Z,99.99
2019-01-28T04:45:09.886Z,99.99
2019-01-28T04:46:09.884Z,99.99
2019-01-28T04:47:09.853Z,99
2019-01-28T04:48:09.828Z,98.14
2019-01-28T04:49:09.808Z,97.01
2019-01-28T04:50:09.792Z,95.83
2019-01-28T04:51:09.791Z,95.97
2019-01-28T04:52:09.757Z,96.35
2019-01-28T04:53:09.485Z,96.59
2019-01-28T04:54:09.716Z,95.92
2019-01-28T04:55:09.703Z,94.22
2019-01-28T04:56:09.681Z,93.04
2019-01-28T04:57:09.660Z,92.85
2019-01-28T04:58:09.653Z,92.52
2019-01-28T04:59:09.623Z,93.8
2019-01-28T05:00:09.615Z,95.5
2019-01-28T05:01:09.337Z,96.26
2019-01-28T05:02:09.565Z,96.35
2019-01-28T05:03:09.300Z,95.97
2019-01-28T05:04:09.528Z,95.21
2019-01-28T05:05:09.511Z,94.93
2019-01-28T05:06:10.723Z,94.27
2019-01-28T05:07:09.473Z,94.27
2019-01-28T05:08:09.457Z,94.27
2019-01-28T05:09:09.442Z,94.46
2019-01-28T05:10:09.417Z,94.46
2019-01-28T05:11:09.153Z,94.93
2019-01-28T05:12:09.380Z,94.08
2019-01-28T05:13:09.360Z,93.7
2019-01-28T05:14:09.341Z,94.46
2019-01-28T05:15:09.325Z,95.59
2019-01-28T05:16:09.709Z,96.73
2019-01-28T05:17:09.286Z,97.11
2019-01-28T05:18:09.268Z,97.96
2019-01-28T05:19:09.255Z,97.49
2019-01-28T05:20:09.003Z,97.39
2019-01-28T05:21:09.212Z,97.11
2019-01-28T05:22:09.193Z,99.66
2019-01-28T05:23:09.173Z,99.85
2019-01-28T05:24:09.162Z,99.99
2019-01-28T05:25:09.136Z,99.99
2019-01-28T05:26:09.125Z,99.38
2019-01-28T05:27:09.108Z,98.81
2019-01-28T05:28:09.094Z,98.43
2019-01-28T05:29:09.113Z,99.66
2019-01-28T05:30:09.046Z,99.99
2019-01-28T05:31:09.025Z,99.99
2019-01-28T05:32:09.006Z,99.99
2019-01-28T05:33:09.012Z,99.99
2019-01-28T05:34:08.977Z,99.99
2019-01-28T05:35:08.954Z,99.99
2019-01-28T05:36:08.683Z,99.99
2019-01-28T05:37:08.934Z,99.99
2019-01-28T05:38:08.899Z,99.99
2019-01-28T05:39:08.886Z,99.99
2019-01-28T05:40:08.863Z,99.99
2019-01-28T05:41:08.841Z,99.99
2019-01-28T05:42:08.849Z,99.99
2019-01-28T05:43:08.808Z,99.99
2019-01-28T05:44:08.789Z,99.99
2019-01-28T05:45:08.768Z,99.99
2019-01-28T05:46:08.746Z,99.99
2019-01-28T05:47:08.738Z,99.99
2019-01-28T05:48:08.464Z,99.99
2019-01-28T05:49:08.694Z,99.99
2019-01-28T05:50:08.673Z,99.99
2019-01-28T05:51:08.655Z,99.99
2019-01-28T05:52:08.645Z,99.99
2019-01-28T05:53:08.622Z,99.99
2019-01-28T05:54:08.602Z,99.99
2019-01-28T05:55:08.580Z,99.99
2019-01-28T05:56:08.565Z,99.99
2019-01-28T05:57:08.797Z,99.99
2019-01-28T05:58:08.531Z,99.99
2019-01-28T05:59:08.511Z,99.99
2019-01-28T06:00:08.246Z,99.99
2019-01-28T06:01:08.471Z,99.99
2019-01-28T06:02:08.452Z,99.99
2019-01-28T06:03:08.436Z,99.99
2019-01-28T06:04:08.420Z,99.99
2019-01-28T06:05:08.403Z,99.99
2019-01-28T06:06:08.379Z,99.99
2019-01-28T06:07:08.361Z,99.99
2019-01-28T06:08:08.342Z,99.99
2019-01-28T06:09:08.325Z,99.99
2019-01-28T06:10:08.305Z,99.99
2019-01-28T06:11:08.288Z,99.99
2019-01-28T06:12:08.266Z,99.99
2019-01-28T06:13:08.253Z,99.99
2019-01-28T06:14:08.230Z,99.99
2019-01-28T06:15:08.208Z,99.99
2019-01-28T06:16:08.193Z,99.99
2019-01-28T06:17:08.177Z,99.99
2019-01-28T06:18:08.157Z,99.99
2019-01-28T06:19:08.136Z,99.99
2019-01-28T06:20:08.120Z,99.99
2019-01-28T06:21:08.097Z,99.99
2019-01-28T06:22:08.077Z,99.99
2019-01-28T06:23:08.064Z,99.99
2019-01-28T06:24:08.051Z,99.99
2019-01-28T06:25:07.785Z,99.99
2019-01-28T06:26:08.006Z,99.99
2019-01-28T06:27:07.985Z,99.99
2019-01-28T06:28:07.967Z,99.99
2019-01-28T06:29:07.950Z,99.99
2019-01-28T06:30:07.931Z,99.99
2019-01-28T06:31:07.661Z,99.99
2019-01-28T06:32:07.896Z,99.99
2019-01-28T06:33:07.876Z,99.99
2019-01-28T06:34:07.857Z,99.99
2019-01-28T06:35:07.851Z,99.99
2019-01-28T06:36:07.819Z,99.99
2019-01-28T06:37:07.800Z,99.99
2019-01-28T06:38:07.794Z,99.99
2019-01-28T06:39:07.762Z,99.99
2019-01-28T06:40:07.744Z,99.99
2019-01-28T06:41:07.724Z,99.99
2019-01-28T06:42:07.703Z,99.99
2019-01-28T06:43:07.687Z,99.99
2019-01-28T06:44:07.668Z,99.99
2019-01-28T06:45:07.651Z,99.99
2019-01-28T06:46:07.632Z,99.99
2019-01-28T06:47:07.610Z,99.99
2019-01-28T06:48:07.593Z,99.99
2019-01-28T06:49:07.575Z,99.99
2019-01-28T06:50:07.557Z,99.99
2019-01-28T06:51:07.537Z,99.99
2019-01-28T06:52:07.518Z,99.99
2019-01-28T06:53:07.496Z,99.99
2019-01-28T06:54:07.484Z,99.99
2019-01-28T06:55:07.463Z,99.99
2019-01-28T06:56:07.441Z,99.99
2019-01-28T06:57:07.425Z,99.99
2019-01-28T06:58:07.401Z,99.99
2019-01-28T06:59:07.383Z,99.99
2019-01-28T07:00:07.372Z,99.99
2019-01-28T07:01:07.351Z,99.99
2019-01-28T07:02:07.333Z,99.99
2019-01-28T07:03:07.316Z,99.99
2019-01-28T07:04:07.043Z,99.99
2019-01-28T07:05:07.270Z,99.99
2019-01-28T07:06:07.252Z,99.99
2019-01-28T07:07:07.237Z,99.99
2019-01-28T07:08:07.221Z,99.99
2019-01-28T07:09:07.196Z,99.99
2019-01-28T07:10:07.176Z,99.99
2019-01-28T07:11:07.161Z,99.99
2019-01-28T07:12:07.141Z,99.99
2019-01-28T07:13:07.123Z,99.99
2019-01-28T07:14:07.103Z,99.99
2019-01-28T07:15:06.838Z,99.99
2019-01-28T07:16:07.066Z,99.99
2019-01-28T07:17:07.049Z,99.99
2019-01-28T07:18:07.032Z,99.99
2019-01-28T07:19:07.008Z,99.99
2019-01-28T07:20:06.988Z,99.99
2019-01-28T07:21:06.970Z,99.99
2019-01-28T07:22:06.953Z,99.99
2019-01-28T07:23:06.937Z,99.99
2019-01-28T07:24:06.921Z,99.99
2019-01-28T07:25:06.895Z,99.99
2019-01-28T07:26:06.880Z,99.99
2019-01-28T07:27:06.865Z,99.99
2019-01-28T07:28:06.842Z,99.99
2019-01-28T07:29:06.855Z,99.99
2019-01-28T07:30:06.805Z,99.99
2019-01-28T07:31:06.784Z,99.99
2019-01-28T07:32:06.764Z,99.99
2019-01-28T07:33:06.752Z,99.99
2019-01-28T07:34:06.726Z,99.99
2019-01-28T07:35:06.711Z,99.99
2019-01-28T07:36:06.694Z,99.99
2019-01-28T07:37:06.674Z,99.99
2019-01-28T07:38:06.654Z,99.99
2019-01-28T07:39:06.640Z,99.99
2019-01-28T07:40:06.634Z,99.99
2019-01-28T07:41:06.599Z,99.99
2019-01-28T07:42:06.579Z,99.99
2019-01-28T07:43:06.316Z,99.99
2019-01-28T07:44:06.551Z,99.99
2019-01-28T07:45:06.527Z,99.99
2019-01-28T07:46:06.511Z,99.99
2019-01-28T07:47:06.489Z,99.99
2019-01-28T07:48:06.477Z,99.99
2019-01-28T07:49:06.451Z,99.99
2019-01-28T07:50:06.445Z,99.99
2019-01-28T07:51:06.412Z,99.99
2019-01-28T07:52:06.394Z,99.99
2019-01-28T07:53:06.379Z,99.99
2019-01-28T07:54:06.110Z,99.99
2019-01-28T07:55:06.338Z,99.99
2019-01-28T07:56:06.324Z,99.99
2019-01-28T07:57:06.302Z,99.99
2019-01-28T07:58:06.287Z,99.99
2019-01-28T07:59:06.270Z,99.99
2019-01-28T08:00:06.264Z,99.99
2019-01-28T08:01:06.228Z,99.99
2019-01-28T08:02:06.215Z,99.99
2019-01-28T08:03:06.190Z,99.99
2019-01-28T08:04:06.175Z,99.99
2019-01-28T08:05:06.160Z,99.99
2019-01-28T08:06:06.140Z,99.99
2019-01-28T08:07:06.123Z,99.99
2019-01-28T08:08:06.098Z,99.99
2019-01-28T08:09:05.835Z,99.99
2019-01-28T08:10:06.064Z,99.99
2019-01-28T08:11:06.044Z,99.99
2019-01-28T08:12:06.025Z,99.99
2019-01-28T08:13:06.009Z,99.99
2019-01-28T08:14:06.002Z,99.99
2019-01-28T08:15:05.977Z,99.99
2019-01-28T08:16:05.958Z,99.99
2019-01-28T08:17:05.937Z,99.99
2019-01-28T08:18:13.235Z,99.99
2019-01-28T08:19:05.900Z,99.99
2019-01-28T08:20:13.668Z,99.99
2019-01-28T08:21:05.865Z,99.99
2019-01-28T08:22:05.846Z,99.99
2019-01-28T08:23:05.833Z,99.99
2019-01-28T08:24:05.571Z,99.99
2019-01-28T08:25:05.789Z,99.99
2019-01-28T08:26:05.785Z,99.99
2019-01-28T08:27:05.758Z,99.99
2019-01-28T08:28:05.738Z,99.99
2019-01-28T08:29:05.724Z,99.99
2019-01-28T08:30:05.706Z,99.99
2019-01-28T08:31:05.692Z,99.99
2019-01-28T08:32:05.672Z,99.99
2019-01-28T08:33:05.667Z,99.99
2019-01-28T08:34:05.632Z,99.99
2019-01-28T08:35:05.615Z,99.99
2019-01-28T08:36:05.597Z,99.99
2019-01-28T08:37:05.587Z,99.99
2019-01-28T08:38:05.559Z,99.99
2019-01-28T08:39:05.542Z,99.99
2019-01-28T08:40:05.528Z,99.99
2019-01-28T08:41:05.517Z,99.99
2019-01-28T08:42:05.489Z,99.99
2019-01-28T08:43:05.231Z,99.99
2019-01-28T08:44:05.208Z,99.99
2019-01-28T08:45:05.440Z,99.99
2019-01-28T08:46:05.425Z,99.99
2019-01-28T08:47:05.401Z,99.99
2019-01-28T08:48:05.381Z,99.99
2019-01-28T08:49:05.372Z,99.99
2019-01-28T08:50:05.346Z,99.99
2019-01-28T08:51:05.330Z,99.99
2019-01-28T08:52:05.312Z,99.99
2019-01-28T08:53:05.297Z,99.99
2019-01-28T08:54:05.275Z,99.99
2019-01-28T08:55:05.268Z,99.99
2019-01-28T08:56:05.241Z,99.99
2019-01-28T08:57:05.228Z,99.99
2019-01-28T08:58:05.207Z,99.99
2019-01-28T08:59:05.189Z,99.99
2019-01-28T09:00:05.171Z,99.99
2019-01-28T09:01:05.155Z,99.99
2019-01-28T09:02:06.528Z,99.99
2019-01-28T09:03:04.874Z,99.99
2019-01-28T09:04:05.096Z,99.99
2019-01-28T09:05:05.081Z,99.99
2019-01-28T09:06:05.062Z,99.99
2019-01-28T09:07:04.794Z,99.99
2019-01-28T09:08:05.028Z,99.99
2019-01-28T09:09:05.009Z,99.99
2019-01-28T09:10:05.000Z,99.99
2019-01-28T09:11:04.969Z,99.99
2019-01-28T09:12:04.952Z,99.99
2019-01-28T09:13:04.938Z,99.99
2019-01-28T09:14:04.921Z,99.99
2019-01-28T09:15:05.378Z,99.99
2019-01-28T09:16:04.634Z,99.99
2019-01-28T09:17:04.866Z,99.99
2019-01-28T09:18:04.598Z,99.99
2019-01-28T09:19:04.830Z,99.99
2019-01-28T09:20:04.815Z,99.99
2019-01-28T09:21:04.796Z,99.99
2019-01-28T09:22:04.776Z,99.99
2019-01-28T09:23:04.514Z,99.99
2019-01-28T09:24:04.494Z,99.99
2019-01-28T09:25:04.730Z,99.99
2019-01-28T09:26:06.473Z,99.99
2019-01-28T09:27:04.700Z,99.99
2019-01-28T09:28:04.671Z,99.99
2019-01-28T09:29:04.658Z,99.99
2019-01-28T09:30:04.641Z,99.99
2019-01-28T09:31:04.616Z,99.99
2019-01-28T09:32:04.598Z,99.99
2019-01-28T09:33:04.587Z,99.99
2019-01-28T09:34:04.570Z,99.99
2019-01-28T09:35:04.549Z,99.99
2019-01-28T09:36:04.529Z,99.99
2019-01-28T09:37:04.269Z,99.99
2019-01-28T09:38:04.506Z,99.99
2019-01-28T09:39:04.478Z,99.99
2019-01-28T09:40:04.460Z,99.99
2019-01-28T09:41:04.446Z,99.99
2019-01-28T09:42:04.427Z,99.99
2019-01-28T09:43:04.410Z,99.99
2019-01-28T09:44:04.391Z,99.99
2019-01-28T09:45:04.388Z,99.99
2019-01-28T09:46:04.363Z,99.99
2019-01-28T09:47:04.340Z,99.99
2019-01-28T09:48:04.336Z,99.99
2019-01-28T09:49:04.310Z,99.99
2019-01-28T09:50:04.322Z,99.99
2019-01-28T09:51:04.275Z,99.99
2019-01-28T09:52:04.260Z,99.99
2019-01-28T09:53:04.238Z,99.99
2019-01-28T09:54:04.222Z,99.99
2019-01-28T09:55:04.206Z,99.99
2019-01-28T09:56:04.189Z,99.99
2019-01-28T09:57:03.926Z,99.99
2019-01-28T09:58:04.153Z,99.99
2019-01-28T09:59:04.139Z,99.99
2019-01-28T10:00:04.123Z,99.99
2019-01-28T10:01:04.111Z,99.99
2019-01-28T10:02:04.090Z,99.99
2019-01-28T10:03:04.068Z,99.99
2019-01-28T10:04:04.052Z,99.99
2019-01-28T10:05:03.786Z,99.99
2019-01-28T10:06:04.019Z,99.99
2019-01-28T10:07:04.003Z,99.99
2019-01-28T10:08:03.983Z,99.99
2019-01-28T10:09:03.967Z,99.99
2019-01-28T10:10:03.954Z,99.99
2019-01-28T10:11:03.933Z,99.99
2019-01-28T10:12:03.914Z,99.99
2019-01-28T10:13:03.901Z,99.99
2019-01-28T10:14:03.904Z,99.99
2019-01-28T10:15:03.867Z,99.99
2019-01-28T10:16:03.847Z,99.99
2019-01-28T10:17:03.830Z,99.99
2019-01-28T10:18:03.818Z,99.99
2019-01-28T10:19:03.801Z,99.99
2019-01-28T10:20:03.781Z,99.99
2019-01-28T10:21:03.769Z,99.99
2019-01-28T10:22:03.748Z,99.99
2019-01-28T10:23:03.730Z,99.99
2019-01-28T10:24:03.717Z,99.99
2019-01-28T10:25:03.732Z,99.99
2019-01-28T10:26:03.677Z,99.99
2019-01-28T10:27:03.658Z,99.99
2019-01-28T10:28:03.643Z,99.99
2019-01-28T10:29:03.629Z,99.99
2019-01-28T10:30:03.612Z,99.99
2019-01-28T10:31:03.593Z,99.99
2019-01-28T10:32:03.576Z,99.99
2019-01-28T10:33:03.557Z,99.99
2019-01-28T10:34:03.544Z,99.99
2019-01-28T10:35:03.528Z,99.99
2019-01-28T10:36:03.510Z,99.99
2019-01-28T10:37:03.489Z,99.99
2019-01-28T10:38:03.473Z,99.99
2019-01-28T10:39:03.465Z,99.99
2019-01-28T10:40:03.451Z,99.99
2019-01-28T10:41:03.429Z,99.99
2019-01-28T10:42:03.160Z,99.99
2019-01-28T10:43:03.393Z,99.99
2019-01-28T10:44:10.010Z,99.99
2019-01-28T10:45:03.359Z,99.99
2019-01-28T10:46:03.339Z,99.99
2019-01-28T10:47:03.323Z,99.99
2019-01-28T10:48:03.504Z,99.99
2019-01-28T10:49:03.294Z,99.99
2019-01-28T10:50:03.275Z,99.99
2019-01-28T10:51:03.259Z,99.99
2019-01-28T10:52:03.241Z,99.99
2019-01-28T10:53:03.227Z,99.99
2019-01-28T10:54:03.210Z,99.99
2019-01-28T10:55:03.193Z,99.99
2019-01-28T10:56:03.175Z,99.99
2019-01-28T10:57:03.159Z,99.99
2019-01-28T10:58:03.140Z,99.99
2019-01-28T10:59:03.127Z,99.99
2019-01-28T11:00:03.109Z,99.99
2019-01-28T11:01:03.093Z,99.99
2019-01-28T11:02:03.080Z,99.99
2019-01-28T11:03:03.059Z,99.99
2019-01-28T11:04:03.042Z,99.99
2019-01-28T11:05:02.776Z,99.99
2019-01-28T11:06:03.012Z,99.99
2019-01-28T11:07:02.992Z,99.99
2019-01-28T11:08:02.973Z,99.99
2019-01-28T11:09:02.985Z,99.99
2019-01-28T11:10:02.946Z,99.99
2019-01-28T11:11:03.074Z,99.99
2019-01-28T11:12:02.909Z,99.99
2019-01-28T11:13:03.001Z,99.99
2019-01-28T11:14:03.027Z,99.99
2019-01-28T11:15:03.131Z,99.99
2019-01-28T11:16:02.717Z,99.99
2019-01-28T11:17:02.990Z,99.99
2019-01-28T11:18:02.958Z,99.99
2019-01-28T11:19:02.918Z,99.99
2019-01-28T11:20:03.040Z,99.99
2019-01-28T11:21:02.829Z,99.99
2019-01-28T11:22:02.863Z,99.99
2019-01-28T11:23:03.034Z,99.99
2019-01-28T11:24:02.758Z,99.99
2019-01-28T11:25:04.399Z,99.99
2019-01-28T11:26:02.778Z,99.99
2019-01-28T11:27:02.794Z,99.99
2019-01-28T11:28:02.699Z,99.99
2019-01-28T11:29:02.665Z,99.99
2019-01-28T11:30:02.890Z,99.99
2019-01-28T11:31:02.623Z,99.99
2019-01-28T11:32:02.808Z,99.99
2019-01-28T11:33:02.555Z,99.99
2019-01-28T11:34:02.776Z,99.99
2019-01-28T11:35:03.069Z,99.99
2019-01-28T11:36:08.255Z,99.99
2019-01-28T11:37:02.648Z,99.99
2019-01-28T11:38:02.667Z,99.99
2019-01-28T11:39:02.553Z,99.99
2019-01-28T11:40:02.483Z,99.99
2019-01-28T11:41:02.624Z,99.99
2019-01-28T11:42:02.553Z,99.99
2019-01-28T11:43:02.396Z,99.99
2019-01-28T11:44:02.418Z,99.99
2019-01-28T11:45:02.473Z,99.99
2019-01-28T11:46:02.543Z,99.99
2019-01-28T11:47:02.554Z,99.99
2019-01-28T11:48:02.075Z,99.99
2019-01-28T11:49:08.294Z,99.99
2019-01-28T11:50:02.422Z,99.99
2019-01-28T11:51:02.261Z,99.99
2019-01-28T11:52:02.244Z,99.99
2019-01-28T11:53:02.226Z,99.99
2019-01-28T11:54:02.210Z,99.99
2019-01-28T11:55:02.197Z,99.99
2019-01-28T11:56:02.193Z,99.99
2019-01-28T11:57:02.159Z,99.99
2019-01-28T11:58:02.162Z,99.99
2019-01-28T11:59:02.126Z,99.99
2019-01-28T12:00:02.109Z,99.99
2019-01-28T12:01:02.094Z,99.99
2019-01-28T12:02:02.076Z,99.99
2019-01-28T12:03:02.062Z,99.99
2019-01-28T12:04:02.043Z,99.99
2019-01-28T12:05:02.028Z,99.99
2019-01-28T12:06:02.015Z,99.99
2019-01-28T12:07:01.992Z,99.99
2019-01-28T12:08:01.974Z,99.99
2019-01-28T12:09:01.959Z,99.99
2019-01-28T12:10:01.946Z,99.99
2019-01-28T12:11:01.926Z,99.99
2019-01-28T12:12:01.905Z,99.99
2019-01-28T12:13:01.889Z,99.99
2019-01-28T12:14:01.876Z,99.99
2019-01-28T12:15:02.108Z,99.99
2019-01-28T12:16:01.840Z,99.99
2019-01-28T12:17:01.823Z,99.99
2019-01-28T12:18:01.816Z,99.99
2019-01-28T12:19:01.792Z,99.99
2019-01-28T12:20:01.776Z,99.99
2019-01-28T12:21:01.759Z,99.99
2019-01-28T12:22:01.739Z,99.99
2019-01-28T12:23:01.726Z,99.99
2019-01-28T12:24:01.708Z,99.99
2019-01-28T12:25:01.692Z,99.99
2019-01-28T12:26:01.677Z,99.99
2019-01-28T12:27:01.411Z,99.99
2019-01-28T12:28:01.646Z,99.99
2019-01-28T12:29:01.623Z,99.99
2019-01-28T12:30:01.361Z,99.99
2019-01-28T12:31:01.593Z,99.99
2019-01-28T12:32:01.576Z,99.99
2019-01-28T12:33:01.561Z,99.99
2019-01-28T12:34:01.546Z,99.99
2019-01-28T12:35:01.274Z,99.99
2019-01-28T12:36:01.515Z,99.99
2019-01-28T12:37:01.492Z,99.99
2019-01-28T12:38:01.477Z,99.99
2019-01-28T12:39:01.457Z,99.99
2019-01-28T12:40:01.590Z,99.99
2019-01-28T12:41:01.424Z,99.99
2019-01-28T12:42:01.410Z,99.99
2019-01-28T12:43:01.390Z,99.99
2019-01-28T12:44:01.379Z,99.99
2019-01-28T12:45:01.361Z,99.99
2019-01-28T12:46:01.092Z,99.99
2019-01-28T12:47:01.324Z,99.99
2019-01-28T12:48:01.313Z,99.99
2019-01-28T12:49:01.291Z,99.99
2019-01-28T12:50:01.276Z,99.99
2019-01-28T12:51:01.256Z,99.99
2019-01-28T12:52:01.259Z,99.99
2019-01-28T12:53:01.225Z,99.99